Pagrindinis puslapis
METAR-TAF:

METAR-TAF

Oro uostai :

Štutgartas, Vokietija

platuma: 48-41N, ilguma: 009-13E, Aukštis: 396 m

Dabartinis oras

Ataskaita buvo paskelbta 36 minutes, ne 14:50 UTC
Vėjas 7 kt iš Šiaurės Rytų, svyruoja nuo Šiaurės ir Rytų
Temperatūra 18°C
Drėgmė 34%
Slėgis 1019 hPa
Matomumas 10 km arba daugiau
nėra debesų žemiau 1500 m ir nėra kamuolinių lietaus debesų

METAR: EDDS 301450Z 05007KT 350V080 CAVOK 18/02 Q1019 NOSIG

Laikas: 17:26 (15:26 UTC)

Prognozė

Ataskaita buvo paskelbta 4 valandos ir 26 minutes, ne 11:00 UTC
Prognozė galioja nuo 30 metu 12 UTC su 31 metu 12 UTC
Vėjas 9 kt iš Šiaurės Rytų
Matomumas 10 km arba daugiau
nėra debesų žemiau 1500 m ir nėra kamuolinių lietaus debesų
Tapsmas
nuo 30 metu 20 UTC su 30 metu 23 UTC
Vėjas 3 kt iš Šiaurės/Šiaurės Rytų
Tapsmas
nuo 31 metu 07 UTC su 31 metu 09 UTC
Vėjas 8 kt iš Šiaurės Rytų

TAF: EDDS 301100Z 3012/3112 05009KT CAVOK BECMG 3020/3023 02003KT BECMG 3107/3109 04008KT

Orai ataskaitas ir orų prognozės (METAR, TAF).

turimą stotys yra geltonos ir raudonos taškus žemėlapyje.

Perkelti pele per norėdami pamatyti stoties vardą.

Tada spustelėkite, norėdami matyti oro stebėjimo ir prognozės.

Norėdami pakeisti žemėlapį: spustelėkite ant žalios mygtukų su juodo kryžiaus žemyn,; žalią mygtuką su brūkšneliu, jei norite nutolinti; arba žalių rodyklių gretimoms žemėlapius.


METAR-TAF: